INJ248 LGTS-LGRP
Flight info
| Callsign | INJ248 |
|---|---|
| Flight time | 1h 3m |
| Altitude | 35000 |
| Route | LEKPO UL617 SKP UN137 NEVRA DCT AKINA UL995 CODIC |
| Aircraft | B738/M-LGTS/L |
Departure
| Time | 2026-05-04 18:28 |
|---|---|
| Airport | Thessaloniki Macedonia International Airport (LGTS) |
Arrival
| Time | 2026-05-04 19:31 |
|---|---|
| Airport | Rhodes International Airport "Diagoras" (LGRP) |
| Time | Latitude | Longitude | Altitude | Speed | Heading |
|---|---|---|---|---|---|
| 2026-05-04 18:16 | 40.52464 | 22.97397 | 15 ft | 0 kts | 45° |
| 2026-05-04 18:19 | 40.52463 | 22.97395 | 15 ft | 1 kts | 45° |
| 2026-05-04 18:20 | 40.52453 | 22.97382 | 15 ft | 3 kts | 39° |
| 2026-05-04 18:20 | 40.52436 | 22.97369 | 15 ft | 3 kts | 20° |
| 2026-05-04 18:20 | 40.52416 | 22.97364 | 15 ft | 3 kts | 1° |
| 2026-05-04 18:20 | 40.52396 | 22.97368 | 15 ft | 3 kts | 341° |
| 2026-05-04 18:21 | 40.52378 | 22.97380 | 15 ft | 3 kts | 324° |
| 2026-05-04 18:21 | 40.52369 | 22.97390 | 15 ft | 0 kts | 316° |
| 2026-05-04 18:23 | 40.52385 | 22.97372 | 15 ft | 9 kts | 321° |
| 2026-05-04 18:23 | 40.52413 | 22.97329 | 15 ft | 5 kts | 276° |
| 2026-05-04 18:23 | 40.52397 | 22.97275 | 15 ft | 9 kts | 242° |
| 2026-05-04 18:24 | 40.52389 | 22.97169 | 15 ft | 15 kts | 302° |
| 2026-05-04 18:24 | 40.52478 | 22.97116 | 15 ft | 13 kts | 346° |
| 2026-05-04 18:24 | 40.52547 | 22.97095 | 15 ft | 7 kts | 346° |
| 2026-05-04 18:24 | 40.52614 | 22.97073 | 15 ft | 16 kts | 346° |
| 2026-05-04 18:25 | 40.52731 | 22.97036 | 15 ft | 16 kts | 346° |
| 2026-05-04 18:25 | 40.52837 | 22.97003 | 15 ft | 14 kts | 347° |
| 2026-05-04 18:25 | 40.52908 | 22.96981 | 15 ft | 8 kts | 346° |
| 2026-05-04 18:25 | 40.52960 | 22.96964 | 15 ft | 9 kts | 346° |
| 2026-05-04 18:26 | 40.53013 | 22.96948 | 15 ft | 7 kts | 346° |
| 2026-05-04 18:26 | 40.53062 | 22.96905 | 15 ft | 11 kts | 285° |
| 2026-05-04 18:26 | 40.53025 | 22.96806 | 15 ft | 12 kts | 216° |
| 2026-05-04 18:26 | 40.52962 | 22.96780 | 15 ft | 8 kts | 172° |
| 2026-05-04 18:27 | 40.52955 | 22.96782 | 15 ft | 0 kts | 168° |
| 2026-05-04 18:27 | 40.52774 | 22.96838 | 15 ft | 64 kts | 167° |
| 2026-05-04 18:27 | 40.52109 | 22.97051 | 15 ft | 133 kts | 166° |
| 2026-05-04 18:28 | 40.51053 | 22.97389 | 307 ft | 167 kts | 165° |
| 2026-05-04 18:28 | 40.49896 | 22.97759 | 1085 ft | 175 kts | 165° |
| 2026-05-04 18:28 | 40.48654 | 22.98164 | 1799 ft | 188 kts | 165° |
| 2026-05-04 18:28 | 40.47373 | 22.98599 | 2477 ft | 195 kts | 166° |
| 2026-05-04 18:29 | 40.46031 | 22.99021 | 3167 ft | 202 kts | 167° |
| 2026-05-04 18:29 | 40.44618 | 22.99468 | 3772 ft | 213 kts | 167° |
| 2026-05-04 18:29 | 40.43149 | 22.99943 | 4319 ft | 226 kts | 167° |
| 2026-05-04 18:29 | 40.41589 | 23.00455 | 4882 ft | 237 kts | 166° |
| 2026-05-04 18:30 | 40.38222 | 23.02016 | 5800 ft | 274 kts | 158° |
| 2026-05-04 18:30 | 40.36399 | 23.02936 | 6429 ft | 286 kts | 158° |
| 2026-05-04 18:30 | 40.34527 | 23.03880 | 7238 ft | 290 kts | 158° |
| 2026-05-04 18:31 | 40.32707 | 23.04797 | 8031 ft | 293 kts | 158° |
| 2026-05-04 18:31 | 40.30815 | 23.05749 | 8834 ft | 296 kts | 158° |
| 2026-05-04 18:31 | 40.28891 | 23.06716 | 9637 ft | 299 kts | 158° |
| 2026-05-04 18:31 | 40.26938 | 23.07697 | 10427 ft | 302 kts | 158° |
| 2026-05-04 18:32 | 40.24953 | 23.08694 | 11084 ft | 311 kts | 158° |
| 2026-05-04 18:32 | 40.22878 | 23.09735 | 11442 ft | 329 kts | 158° |
| 2026-05-04 18:32 | 40.20666 | 23.10844 | 11731 ft | 349 kts | 158° |
| 2026-05-04 18:32 | 40.18335 | 23.12011 | 12070 ft | 365 kts | 158° |
| 2026-05-04 18:33 | 40.15931 | 23.13214 | 12661 ft | 373 kts | 158° |
| 2026-05-04 18:33 | 40.13488 | 23.14436 | 13346 ft | 377 kts | 158° |
| 2026-05-04 18:33 | 40.11025 | 23.15667 | 14024 ft | 381 kts | 158° |
| 2026-05-04 18:33 | 40.08571 | 23.16894 | 14680 ft | 385 kts | 158° |
| 2026-05-04 18:34 | 40.06039 | 23.18167 | 15443 ft | 386 kts | 158° |
| 2026-05-04 18:34 | 40.03487 | 23.19448 | 15877 ft | 397 kts | 158° |
| 2026-05-04 18:34 | 40.00911 | 23.20739 | 16443 ft | 402 kts | 158° |
| 2026-05-04 18:34 | 39.98285 | 23.22052 | 17023 ft | 406 kts | 158° |
| 2026-05-04 18:35 | 39.95619 | 23.23384 | 17638 ft | 409 kts | 158° |
| 2026-05-04 18:35 | 39.92970 | 23.24705 | 18192 ft | 413 kts | 158° |
| 2026-05-04 18:35 | 39.90279 | 23.26046 | 18773 ft | 417 kts | 158° |
| 2026-05-04 18:35 | 39.87551 | 23.27404 | 19317 ft | 421 kts | 158° |
| 2026-05-04 18:36 | 39.84807 | 23.28768 | 19881 ft | 423 kts | 158° |
| 2026-05-04 18:36 | 39.82081 | 23.30122 | 20417 ft | 426 kts | 158° |
| 2026-05-04 18:36 | 39.79244 | 23.31530 | 20964 ft | 429 kts | 158° |
| 2026-05-04 18:36 | 39.76450 | 23.32915 | 21473 ft | 432 kts | 158° |
| 2026-05-04 18:37 | 39.73639 | 23.34307 | 21968 ft | 435 kts | 158° |
| 2026-05-04 18:37 | 39.70796 | 23.35714 | 22433 ft | 438 kts | 158° |
| 2026-05-04 18:37 | 39.67945 | 23.37124 | 22897 ft | 441 kts | 158° |
| 2026-05-04 18:37 | 39.65056 | 23.38551 | 23357 ft | 444 kts | 158° |
| 2026-05-04 18:38 | 39.62161 | 23.39980 | 23811 ft | 446 kts | 158° |
| 2026-05-04 18:38 | 39.59284 | 23.41398 | 24241 ft | 449 kts | 158° |
| 2026-05-04 18:38 | 39.56346 | 23.42845 | 24668 ft | 451 kts | 158° |
| 2026-05-04 18:38 | 39.53404 | 23.44294 | 25083 ft | 454 kts | 158° |
| 2026-05-04 18:39 | 39.50427 | 23.45757 | 25508 ft | 455 kts | 158° |
| 2026-05-04 18:39 | 39.47483 | 23.47207 | 25903 ft | 457 kts | 158° |
| 2026-05-04 18:39 | 39.44468 | 23.48695 | 26276 ft | 460 kts | 158° |
| 2026-05-04 18:39 | 39.41514 | 23.50147 | 26645 ft | 462 kts | 158° |
| 2026-05-04 18:40 | 39.38494 | 23.51627 | 27012 ft | 464 kts | 158° |
| 2026-05-04 18:40 | 39.35462 | 23.53111 | 27374 ft | 466 kts | 158° |
| 2026-05-04 18:40 | 39.32422 | 23.54596 | 27715 ft | 467 kts | 158° |
| 2026-05-04 18:40 | 39.29363 | 23.56088 | 28052 ft | 469 kts | 158° |
| 2026-05-04 18:41 | 39.26298 | 23.57582 | 28357 ft | 472 kts | 158° |
| 2026-05-04 18:41 | 39.23255 | 23.59065 | 28659 ft | 473 kts | 158° |
| 2026-05-04 18:41 | 39.20207 | 23.60695 | 28959 ft | 474 kts | 153° |
| 2026-05-04 18:41 | 39.17270 | 23.62652 | 29267 ft | 475 kts | 148° |
| 2026-05-04 18:42 | 39.14478 | 23.64951 | 29698 ft | 472 kts | 143° |
| 2026-05-04 18:42 | 39.11847 | 23.67379 | 30147 ft | 469 kts | 142° |
| 2026-05-04 18:42 | 39.09236 | 23.69873 | 30503 ft | 469 kts | 142° |
| 2026-05-04 18:42 | 39.06599 | 23.72383 | 30721 ft | 472 kts | 142° |
| 2026-05-04 18:43 | 39.03962 | 23.74885 | 31029 ft | 472 kts | 142° |
| 2026-05-04 18:43 | 39.01301 | 23.77402 | 31433 ft | 469 kts | 141° |
| 2026-05-04 18:43 | 38.98683 | 23.79876 | 31868 ft | 465 kts | 146° |
| 2026-05-04 18:43 | 38.96096 | 23.82314 | 32108 ft | 468 kts | 145° |
| 2026-05-04 18:44 | 38.93455 | 23.84798 | 32332 ft | 470 kts | 145° |
| 2026-05-04 18:44 | 38.91700 | 23.86447 | 32440 ft | 473 kts | 142° |
| 2026-05-04 18:44 | 38.88173 | 23.89778 | 32621 ft | 479 kts | 142° |
| 2026-05-04 18:44 | 38.85444 | 23.92357 | 33045 ft | 471 kts | 141° |
| 2026-05-04 18:45 | 38.82785 | 23.94859 | 33138 ft | 477 kts | 141° |
| 2026-05-04 18:45 | 38.80093 | 23.97388 | 33276 ft | 481 kts | 142° |
| 2026-05-04 18:45 | 38.77422 | 23.99894 | 33446 ft | 484 kts | 142° |
| 2026-05-04 18:45 | 38.74700 | 24.02445 | 33644 ft | 486 kts | 142° |
| 2026-05-04 18:46 | 38.71971 | 24.04998 | 33898 ft | 487 kts | 142° |
| 2026-05-04 18:46 | 38.69222 | 24.07566 | 34109 ft | 488 kts | 142° |
| 2026-05-04 18:46 | 38.66482 | 24.10139 | 34384 ft | 489 kts | 142° |
| 2026-05-04 18:46 | 38.63724 | 24.12720 | 34532 ft | 492 kts | 143° |
| 2026-05-04 18:47 | 38.60945 | 24.15311 | 34799 ft | 492 kts | 143° |
| 2026-05-04 18:47 | 38.58209 | 24.17856 | 35084 ft | 491 kts | 143° |
| 2026-05-04 18:47 | 38.55416 | 24.20449 | 35115 ft | 495 kts | 143° |
| 2026-05-04 18:48 | 38.49851 | 24.25606 | 35126 ft | 494 kts | 143° |
| 2026-05-04 18:48 | 38.44296 | 24.30744 | 35131 ft | 492 kts | 143° |
| 2026-05-04 18:49 | 38.38755 | 24.35879 | 35131 ft | 493 kts | 143° |
| 2026-05-04 18:49 | 38.33189 | 24.41015 | 35133 ft | 493 kts | 143° |
| 2026-05-04 18:50 | 38.27617 | 24.46138 | 35135 ft | 493 kts | 143° |
| 2026-05-04 18:50 | 38.22080 | 24.51217 | 35135 ft | 493 kts | 143° |
| 2026-05-04 18:51 | 38.17247 | 24.55917 | 35135 ft | 492 kts | 137° |
| 2026-05-04 18:51 | 38.13276 | 24.60994 | 35129 ft | 490 kts | 129° |
| 2026-05-04 18:52 | 38.08854 | 24.67477 | 35136 ft | 487 kts | 129° |
| 2026-05-04 18:52 | 38.04402 | 24.73982 | 35138 ft | 487 kts | 129° |
| 2026-05-04 18:53 | 37.99935 | 24.80466 | 35138 ft | 487 kts | 129° |
| 2026-05-04 18:53 | 37.95477 | 24.86908 | 35133 ft | 488 kts | 129° |
| 2026-05-04 18:54 | 37.90972 | 24.93443 | 35130 ft | 492 kts | 129° |
| 2026-05-04 18:54 | 37.86472 | 24.99956 | 35129 ft | 490 kts | 129° |
| 2026-05-04 18:55 | 37.82039 | 25.06346 | 35131 ft | 490 kts | 129° |
| 2026-05-04 18:55 | 37.75989 | 25.15034 | 35123 ft | 488 kts | 129° |
| 2026-05-04 18:56 | 37.71483 | 25.21486 | 35123 ft | 488 kts | 129° |
| 2026-05-04 18:56 | 37.66976 | 25.27923 | 35126 ft | 489 kts | 130° |
| 2026-05-04 18:57 | 37.62471 | 25.34346 | 35122 ft | 488 kts | 130° |
| 2026-05-04 18:57 | 37.58002 | 25.40704 | 35113 ft | 486 kts | 130° |
| 2026-05-04 18:58 | 37.53510 | 25.47081 | 35113 ft | 485 kts | 130° |
| 2026-05-04 18:58 | 37.49012 | 25.53456 | 35114 ft | 486 kts | 130° |
| 2026-05-04 18:59 | 37.44536 | 25.59785 | 35111 ft | 485 kts | 130° |
| 2026-05-04 18:59 | 37.40012 | 25.66171 | 35110 ft | 487 kts | 130° |
| 2026-05-04 19:00 | 37.35509 | 25.72516 | 35075 ft | 486 kts | 130° |
| 2026-05-04 19:00 | 37.33290 | 25.75637 | 34638 ft | 483 kts | 130° |
| 2026-05-04 19:00 | 37.31047 | 25.78790 | 33948 ft | 484 kts | 130° |
| 2026-05-04 19:01 | 37.28794 | 25.81953 | 33238 ft | 485 kts | 129° |
| 2026-05-04 19:01 | 37.26534 | 25.85123 | 32537 ft | 485 kts | 129° |
| 2026-05-04 19:01 | 37.24309 | 25.88242 | 31995 ft | 482 kts | 129° |
| 2026-05-04 19:01 | 37.22082 | 25.91360 | 31472 ft | 478 kts | 129° |
| 2026-05-04 19:02 | 37.19865 | 25.94461 | 30955 ft | 473 kts | 129° |
| 2026-05-04 19:02 | 37.17689 | 25.97527 | 30483 ft | 468 kts | 134° |
| 2026-05-04 19:02 | 37.15530 | 26.00554 | 29966 ft | 465 kts | 133° |
| 2026-05-04 19:02 | 37.13386 | 26.03548 | 29521 ft | 455 kts | 135° |
| 2026-05-04 19:03 | 37.11303 | 26.06448 | 29066 ft | 440 kts | 135° |
| 2026-05-04 19:03 | 37.09274 | 26.09269 | 28596 ft | 427 kts | 135° |
| 2026-05-04 19:03 | 37.07316 | 26.11987 | 28095 ft | 421 kts | 129° |
| 2026-05-04 19:03 | 37.05370 | 26.14691 | 27641 ft | 420 kts | 135° |
| 2026-05-04 19:04 | 37.03380 | 26.17444 | 27176 ft | 430 kts | 129° |
| 2026-05-04 19:04 | 37.01369 | 26.20232 | 26714 ft | 432 kts | 129° |
| 2026-05-04 19:04 | 36.99457 | 26.23098 | 26252 ft | 422 kts | 124° |
| 2026-05-04 19:04 | 36.97861 | 26.26113 | 25799 ft | 411 kts | 117° |
| 2026-05-04 19:05 | 36.96560 | 26.29266 | 25347 ft | 402 kts | 111° |
| 2026-05-04 19:05 | 36.95446 | 26.32435 | 24907 ft | 393 kts | 109° |
| 2026-05-04 19:05 | 36.94398 | 26.35562 | 24479 ft | 396 kts | 110° |
| 2026-05-04 19:05 | 36.93318 | 26.38760 | 24041 ft | 402 kts | 110° |
| 2026-05-04 19:06 | 36.92218 | 26.42003 | 23597 ft | 405 kts | 110° |
| 2026-05-04 19:06 | 36.91112 | 26.45254 | 23147 ft | 403 kts | 110° |
| 2026-05-04 19:06 | 36.90018 | 26.48462 | 22704 ft | 399 kts | 110° |
| 2026-05-04 19:06 | 36.88943 | 26.51616 | 22260 ft | 398 kts | 110° |
| 2026-05-04 19:07 | 36.87860 | 26.54789 | 21815 ft | 396 kts | 110° |
| 2026-05-04 19:07 | 36.86773 | 26.57965 | 21370 ft | 394 kts | 110° |
| 2026-05-04 19:07 | 36.85697 | 26.61097 | 20932 ft | 392 kts | 110° |
| 2026-05-04 19:07 | 36.84624 | 26.64217 | 20496 ft | 390 kts | 110° |
| 2026-05-04 19:08 | 36.83553 | 26.67331 | 20059 ft | 388 kts | 110° |
| 2026-05-04 19:08 | 36.82504 | 26.70377 | 19632 ft | 386 kts | 110° |
| 2026-05-04 19:08 | 36.81448 | 26.73441 | 19204 ft | 384 kts | 110° |
| 2026-05-04 19:08 | 36.80391 | 26.76512 | 18771 ft | 382 kts | 110° |
| 2026-05-04 19:09 | 36.79358 | 26.79550 | 18345 ft | 381 kts | 110° |
| 2026-05-04 19:09 | 36.78313 | 26.82600 | 17918 ft | 379 kts | 110° |
| 2026-05-04 19:09 | 36.77275 | 26.85618 | 17496 ft | 377 kts | 110° |
| 2026-05-04 19:09 | 36.76236 | 26.88623 | 17077 ft | 376 kts | 110° |
| 2026-05-04 19:10 | 36.75211 | 26.91583 | 16667 ft | 374 kts | 110° |
| 2026-05-04 19:10 | 36.74176 | 26.94562 | 16254 ft | 372 kts | 110° |
| 2026-05-04 19:10 | 36.73145 | 26.97528 | 15839 ft | 370 kts | 110° |
| 2026-05-04 19:10 | 36.72133 | 27.00433 | 15433 ft | 369 kts | 110° |
| 2026-05-04 19:11 | 36.71130 | 27.03312 | 15033 ft | 367 kts | 110° |
| 2026-05-04 19:11 | 36.70122 | 27.06203 | 14632 ft | 366 kts | 110° |
| 2026-05-04 19:11 | 36.69095 | 27.09147 | 14223 ft | 364 kts | 110° |
| 2026-05-04 19:11 | 36.68100 | 27.11999 | 13828 ft | 362 kts | 110° |
| 2026-05-04 19:12 | 36.67098 | 27.14868 | 13432 ft | 360 kts | 110° |
| 2026-05-04 19:12 | 36.65103 | 27.20565 | 12651 ft | 357 kts | 116° |
| 2026-05-04 19:12 | 36.64105 | 27.23396 | 12261 ft | 356 kts | 112° |
| 2026-05-04 19:13 | 36.63113 | 27.26214 | 11879 ft | 354 kts | 110° |
| 2026-05-04 19:13 | 36.62124 | 27.29024 | 11495 ft | 352 kts | 110° |
| 2026-05-04 19:13 | 36.61148 | 27.31794 | 11228 ft | 347 kts | 110° |
| 2026-05-04 19:13 | 36.60188 | 27.34516 | 11030 ft | 339 kts | 110° |
| 2026-05-04 19:14 | 36.59269 | 27.37142 | 10838 ft | 329 kts | 109° |
| 2026-05-04 19:14 | 36.58384 | 27.39703 | 10657 ft | 316 kts | 109° |
| 2026-05-04 19:14 | 36.57523 | 27.42175 | 10483 ft | 305 kts | 109° |
| 2026-05-04 19:14 | 36.56691 | 27.44555 | 10324 ft | 294 kts | 112° |
| 2026-05-04 19:15 | 36.55886 | 27.46845 | 10181 ft | 286 kts | 114° |
| 2026-05-04 19:15 | 36.55078 | 27.49135 | 9986 ft | 290 kts | 115° |
| 2026-05-04 19:15 | 36.54270 | 27.51418 | 9737 ft | 293 kts | 116° |
| 2026-05-04 19:15 | 36.53450 | 27.53735 | 9474 ft | 293 kts | 116° |
| 2026-05-04 19:16 | 36.52834 | 27.55471 | 9276 ft | 292 kts | 117° |
| 2026-05-04 19:16 | 36.52284 | 27.57011 | 9055 ft | 290 kts | 109° |
| 2026-05-04 19:16 | 36.51477 | 27.59285 | 8757 ft | 285 kts | 109° |
| 2026-05-04 19:16 | 36.50680 | 27.61526 | 8476 ft | 279 kts | 109° |
| 2026-05-04 19:17 | 36.49900 | 27.63720 | 8205 ft | 276 kts | 109° |
| 2026-05-04 19:17 | 36.49115 | 27.65922 | 7939 ft | 283 kts | 109° |
| 2026-05-04 19:17 | 36.48320 | 27.68156 | 7656 ft | 289 kts | 109° |
| 2026-05-04 19:17 | 36.47492 | 27.70479 | 7363 ft | 289 kts | 109° |
| 2026-05-04 19:18 | 36.46735 | 27.72754 | 7090 ft | 285 kts | 104° |
| 2026-05-04 19:18 | 36.46218 | 27.75102 | 6917 ft | 278 kts | 96° |
| 2026-05-04 19:18 | 36.45898 | 27.77442 | 6781 ft | 274 kts | 92° |
| 2026-05-04 19:18 | 36.45620 | 27.79788 | 6642 ft | 274 kts | 92° |
| 2026-05-04 19:19 | 36.45327 | 27.82131 | 6508 ft | 273 kts | 93° |
| 2026-05-04 19:19 | 36.45024 | 27.84465 | 6359 ft | 273 kts | 93° |
| 2026-05-04 19:19 | 36.44716 | 27.86784 | 6216 ft | 272 kts | 93° |
| 2026-05-04 19:19 | 36.44406 | 27.89099 | 6077 ft | 271 kts | 93° |
| 2026-05-04 19:20 | 36.44100 | 27.91383 | 5938 ft | 271 kts | 93° |
| 2026-05-04 19:20 | 36.43794 | 27.93694 | 5799 ft | 271 kts | 93° |
| 2026-05-04 19:20 | 36.43483 | 27.96019 | 5661 ft | 271 kts | 93° |
| 2026-05-04 19:20 | 36.43171 | 27.98331 | 5525 ft | 271 kts | 93° |
| 2026-05-04 19:21 | 36.42860 | 28.00625 | 5391 ft | 271 kts | 94° |
| 2026-05-04 19:21 | 36.42545 | 28.02933 | 5257 ft | 271 kts | 94° |
| 2026-05-04 19:21 | 36.42229 | 28.05244 | 5123 ft | 271 kts | 94° |
| 2026-05-04 19:21 | 36.41912 | 28.07555 | 4989 ft | 271 kts | 94° |
| 2026-05-04 19:22 | 36.41595 | 28.09854 | 4856 ft | 271 kts | 94° |
| 2026-05-04 19:22 | 36.41277 | 28.12164 | 4722 ft | 270 kts | 94° |
| 2026-05-04 19:22 | 36.40960 | 28.14468 | 4587 ft | 270 kts | 94° |
| 2026-05-04 19:22 | 36.40643 | 28.16762 | 4454 ft | 270 kts | 94° |
| 2026-05-04 19:23 | 36.40329 | 28.19045 | 4321 ft | 269 kts | 94° |
| 2026-05-04 19:23 | 36.40014 | 28.21344 | 4188 ft | 269 kts | 94° |
| 2026-05-04 19:23 | 36.39702 | 28.23608 | 4056 ft | 269 kts | 94° |
| 2026-05-04 19:23 | 36.39385 | 28.25893 | 3924 ft | 268 kts | 95° |
| 2026-05-04 19:24 | 36.39067 | 28.28187 | 3791 ft | 268 kts | 95° |
| 2026-05-04 19:24 | 36.38785 | 28.30468 | 3651 ft | 265 kts | 88° |
| 2026-05-04 19:24 | 36.39033 | 28.32656 | 3570 ft | 246 kts | 65° |
| 2026-05-04 19:24 | 36.39718 | 28.34522 | 3431 ft | 233 kts | 56° |
| 2026-05-04 19:25 | 36.40568 | 28.36151 | 3267 ft | 218 kts | 38° |
| 2026-05-04 19:25 | 36.41870 | 28.36849 | 3170 ft | 198 kts | 1° |
| 2026-05-04 19:25 | 36.42967 | 28.36689 | 3088 ft | 187 kts | 342° |
| 2026-05-04 19:25 | 36.44056 | 28.35881 | 2940 ft | 180 kts | 320° |
| 2026-05-04 19:26 | 36.44930 | 28.34788 | 2854 ft | 178 kts | 315° |
| 2026-05-04 19:26 | 36.45728 | 28.33635 | 2719 ft | 174 kts | 312° |
| 2026-05-04 19:26 | 36.46469 | 28.32453 | 2625 ft | 174 kts | 306° |
| 2026-05-04 19:26 | 36.46854 | 28.31017 | 2528 ft | 181 kts | 280° |
| 2026-05-04 19:27 | 36.46699 | 28.29468 | 2491 ft | 186 kts | 260° |
| 2026-05-04 19:27 | 36.46249 | 28.27953 | 2492 ft | 187 kts | 255° |
| 2026-05-04 19:27 | 36.45780 | 28.26449 | 2497 ft | 185 kts | 256° |
| 2026-05-04 19:27 | 36.45339 | 28.24974 | 2495 ft | 179 kts | 257° |
| 2026-05-04 19:28 | 36.44909 | 28.23521 | 2297 ft | 178 kts | 256° |
| 2026-05-04 19:28 | 36.44491 | 28.22102 | 2058 ft | 171 kts | 256° |
| 2026-05-04 19:28 | 36.44103 | 28.20786 | 1848 ft | 158 kts | 256° |
| 2026-05-04 19:28 | 36.43740 | 28.19549 | 1654 ft | 147 kts | 256° |
| 2026-05-04 19:29 | 36.43396 | 28.18380 | 1443 ft | 142 kts | 256° |
| 2026-05-04 19:29 | 36.43058 | 28.17228 | 1260 ft | 142 kts | 256° |
| 2026-05-04 19:29 | 36.42718 | 28.16071 | 1071 ft | 143 kts | 256° |
| 2026-05-04 19:29 | 36.42378 | 28.14913 | 878 ft | 142 kts | 255° |
| 2026-05-04 19:30 | 36.42039 | 28.13760 | 686 ft | 142 kts | 255° |
| 2026-05-04 19:30 | 36.41702 | 28.12611 | 508 ft | 141 kts | 254° |
| 2026-05-04 19:30 | 36.41366 | 28.11451 | 301 ft | 144 kts | 253° |
| 2026-05-04 19:30 | 36.41017 | 28.10288 | 45 ft | 143 kts | 253° |
| 2026-05-04 19:31 | 36.40723 | 28.09267 | 28 ft | 91 kts | 253° |
| 2026-05-04 19:31 | 36.40613 | 28.08883 | 28 ft | 16 kts | 250° |
| 2026-05-04 19:31 | 36.40576 | 28.08756 | 28 ft | 18 kts | 248° |
| 2026-05-04 19:31 | 36.40537 | 28.08657 | 28 ft | 11 kts | 219° |
| 2026-05-04 19:32 | 36.40482 | 28.08656 | 28 ft | 6 kts | 139° |
| 2026-05-04 19:32 | 36.40468 | 28.08678 | 28 ft | 0 kts | 122° |
| 2026-05-04 19:32 | 36.40451 | 28.08716 | 28 ft | 9 kts | 115° |
| 2026-05-04 19:33 | 36.40420 | 28.08771 | 28 ft | 7 kts | 134° |
| 2026-05-04 19:33 | 36.40399 | 28.08846 | 28 ft | 5 kts | 96° |
| 2026-05-04 19:33 | 36.40396 | 28.08899 | 28 ft | 8 kts | 93° |
| 2026-05-04 19:33 | 36.40396 | 28.08970 | 28 ft | 8 kts | 92° |
| 2026-05-04 19:34 | 36.40375 | 28.09005 | 28 ft | 4 kts | 152° |
| 2026-05-04 19:34 | 36.40353 | 28.09016 | 28 ft | 2 kts | 158° |
| 2026-05-04 19:34 | 36.40337 | 28.09024 | 28 ft | 2 kts | 159° |
| 2026-05-04 19:34 | 36.40335 | 28.09025 | 28 ft | 0 kts | 159° |
| 2026-05-04 19:54 | 36.40346 | 28.09020 | 28 ft | 2 kts | 158° |
| 2026-05-04 19:55 | 36.40361 | 28.09009 | 28 ft | 3 kts | 140° |
| 2026-05-04 19:55 | 36.40375 | 28.08990 | 28 ft | 3 kts | 121° |
| 2026-05-04 19:55 | 36.40382 | 28.08968 | 28 ft | 3 kts | 103° |
| 2026-05-04 19:55 | 36.40383 | 28.08942 | 28 ft | 3 kts | 85° |
| 2026-05-04 19:56 | 36.40379 | 28.08918 | 28 ft | 2 kts | 70° |
| 2026-05-04 19:56 | 36.40379 | 28.08917 | 28 ft | 0 kts | 70° |
| 2026-05-04 19:58 | 36.40386 | 28.08948 | 28 ft | 11 kts | 75° |
| 2026-05-04 19:58 | 36.40412 | 28.09050 | 28 ft | 15 kts | 71° |
| 2026-05-04 19:59 | 36.40449 | 28.09173 | 28 ft | 13 kts | 69° |
| 2026-05-04 19:59 | 36.40475 | 28.09261 | 28 ft | 6 kts | 70° |
| 2026-05-04 19:59 | 36.40483 | 28.09283 | 28 ft | 0 kts | 64° |